createdAt,value
2023-02-15T00:02:02.650Z,76.64
2023-02-15T00:04:47.567Z,76.49
2023-02-15T00:07:16.639Z,76.64
2023-02-15T00:09:44.011Z,76.45
2023-02-15T00:12:11.248Z,76.70
2023-02-15T00:14:38.374Z,76.73
2023-02-15T00:17:05.547Z,77.67
2023-02-15T00:19:32.707Z,77.07
2023-02-15T00:21:59.744Z,76.70
2023-02-15T00:24:27.025Z,76.16
2023-02-15T00:26:54.045Z,76.84
2023-02-15T00:29:21.700Z,76.51
2023-02-15T00:31:49.794Z,76.59
2023-02-15T00:34:18.699Z,77.40
2023-02-15T00:36:46.281Z,76.65
2023-02-15T00:39:13.825Z,76.18
2023-02-15T00:41:40.828Z,76.25
2023-02-15T00:44:08.080Z,75.88
2023-02-15T00:46:35.445Z,76.03
2023-02-15T00:49:02.441Z,75.69
2023-02-15T00:51:29.773Z,75.80
2023-02-15T00:53:56.745Z,76.10
2023-02-15T00:56:23.901Z,76.53
2023-02-15T00:58:50.837Z,75.80
2023-02-15T01:01:19.193Z,75.72
2023-02-15T01:03:47.866Z,75.81
2023-02-15T01:06:15.776Z,75.04
2023-02-15T01:08:42.980Z,75.41
2023-02-15T01:11:11.719Z,75.59
2023-02-15T01:13:39.268Z,76.37
2023-02-15T01:16:06.668Z,75.97
2023-02-15T01:18:34.330Z,74.72
2023-02-15T01:21:02.079Z,74.28
2023-02-15T01:23:29.193Z,74.89
2023-02-15T01:25:56.271Z,75.21
2023-02-15T01:28:23.266Z,75.50
2023-02-15T01:30:50.446Z,75.71
2023-02-15T01:33:19.192Z,77.09
2023-02-15T01:35:47.584Z,76.51
2023-02-15T01:38:15.072Z,75.85
2023-02-15T01:40:42.634Z,75.54
2023-02-15T01:43:12.250Z,75.71
2023-02-15T01:45:40.342Z,77.63
2023-02-15T01:48:12.712Z,78.15
2023-02-15T01:50:42.304Z,78.16
2023-02-15T01:53:12.503Z,79.07
2023-02-15T01:55:42.022Z,79.00
2023-02-15T01:58:09.187Z,79.22
2023-02-15T02:00:36.373Z,78.81
2023-02-15T02:03:04.958Z,78.78
2023-02-15T02:05:32.392Z,79.93
2023-02-15T02:08:00.308Z,79.82
2023-02-15T02:10:27.355Z,79.81
2023-02-15T02:12:57.350Z,80.03
2023-02-15T02:15:28.635Z,80.95
2023-02-15T02:18:01.763Z,80.92
2023-02-15T02:20:31.613Z,80.52
2023-02-15T02:22:59.924Z,80.68
2023-02-15T02:25:29.818Z,80.09
2023-02-15T02:28:06.402Z,79.54
2023-02-15T02:30:36.410Z,78.95
2023-02-15T02:35:39.828Z,79.02
2023-02-15T02:38:09.808Z,78.40
2023-02-15T02:40:39.763Z,78.85
2023-02-15T02:43:11.826Z,78.33
2023-02-15T02:45:42.317Z,78.27
2023-02-15T02:48:12.008Z,77.57
2023-02-15T02:50:41.206Z,77.69
2023-02-15T02:53:08.158Z,77.85
2023-02-15T02:55:39.513Z,77.72
2023-02-15T02:58:09.507Z,77.97
2023-02-15T03:00:38.224Z,78.13
2023-02-15T03:03:07.868Z,78.29
2023-02-15T03:05:36.481Z,78.70
2023-02-15T03:08:07.216Z,78.93
2023-02-15T03:10:36.173Z,79.69
2023-02-15T03:13:03.691Z,78.91
2023-02-15T03:15:52.604Z,78.83
2023-02-15T03:18:22.114Z,78.72
2023-02-15T03:20:49.559Z,79.20
2023-02-15T03:23:19.673Z,79.54
2023-02-15T03:25:50.675Z,79.82
2023-02-15T03:28:22.998Z,79.69
2023-02-15T03:30:53.567Z,80.07
2023-02-15T03:33:21.847Z,80.16
2023-02-15T03:35:53.927Z,79.98
2023-02-15T03:38:26.004Z,80.24
2023-02-15T03:40:57.443Z,80.30
2023-02-15T03:43:31.996Z,80.88
2023-02-15T03:46:03.062Z,81.33
2023-02-15T03:48:32.960Z,81.91
2023-02-15T03:51:06.582Z,82.41
2023-02-15T03:53:33.487Z,82.29
2023-02-15T03:56:00.923Z,81.47
2023-02-15T03:58:31.133Z,81.96
2023-02-15T04:01:01.570Z,81.69
2023-02-15T04:03:32.435Z,82.10
2023-02-15T04:05:59.481Z,83.13
2023-02-15T04:08:46.227Z,83.38
2023-02-15T04:11:13.205Z,83.05
2023-02-15T04:13:40.414Z,83.89
2023-02-15T04:16:08.463Z,83.82
2023-02-15T04:18:39.133Z,83.34
2023-02-15T04:21:09.042Z,83.46
2023-02-15T04:23:39.196Z,84.08
2023-02-15T04:26:06.104Z,84.67
2023-02-15T04:28:33.029Z,84.85
2023-02-15T04:30:59.890Z,85.20
2023-02-15T04:33:26.836Z,85.92
2023-02-15T04:35:53.761Z,85.66
2023-02-15T04:38:20.712Z,85.61
2023-02-15T04:40:50.994Z,85.41
2023-02-15T04:43:17.895Z,85.59
2023-02-15T04:45:48.895Z,86.31
2023-02-15T04:48:16.069Z,86.19
2023-02-15T04:50:43.117Z,86.42
2023-02-15T04:53:10.016Z,86.11
2023-02-15T04:55:36.875Z,86.23
2023-02-15T04:58:03.753Z,85.65
2023-02-15T05:00:30.707Z,85.35
2023-02-15T05:02:57.593Z,85.97
2023-02-15T05:05:24.476Z,86.54
2023-02-15T05:07:51.269Z,86.91
2023-02-15T05:10:18.551Z,87.16
2023-02-15T05:12:45.443Z,86.86
2023-02-15T05:15:12.387Z,87.11
2023-02-15T05:17:39.411Z,87.27
2023-02-15T05:20:08.010Z,87.44
2023-02-15T05:22:35.100Z,86.48
2023-02-15T05:25:05.329Z,85.98
2023-02-15T05:27:35.422Z,85.95
2023-02-15T05:30:02.739Z,85.68
2023-02-15T05:32:29.837Z,85.55
2023-02-15T05:34:56.919Z,85.88
2023-02-15T05:37:23.927Z,86.99
2023-02-15T05:39:50.955Z,86.68
2023-02-15T05:42:18.009Z,86.02
2023-02-15T05:44:45.067Z,86.34
2023-02-15T05:47:12.249Z,87.66
2023-02-15T05:49:39.286Z,88.03
2023-02-15T05:52:06.243Z,87.15
2023-02-15T05:54:33.304Z,86.61
2023-02-15T05:57:00.263Z,86.22
2023-02-15T05:59:27.374Z,86.63
2023-02-15T06:01:54.636Z,86.62
2023-02-15T06:04:21.789Z,86.66
2023-02-15T06:06:48.641Z,87.83
2023-02-15T06:09:15.766Z,88.51
2023-02-15T06:11:42.881Z,88.54
2023-02-15T06:14:09.715Z,88.83
2023-02-15T06:16:36.604Z,88.39
2023-02-15T06:19:03.780Z,88.98
2023-02-15T06:21:31.360Z,88.85
2023-02-15T06:23:58.828Z,89.35
2023-02-15T06:26:25.842Z,90.05
2023-02-15T06:28:52.720Z,89.72
2023-02-15T06:31:19.798Z,89.62
2023-02-15T06:33:46.976Z,88.67
2023-02-15T06:36:13.834Z,88.48
2023-02-15T06:38:40.878Z,89.19
2023-02-15T06:41:07.856Z,89.89
2023-02-15T06:43:35.532Z,89.94
2023-02-15T06:46:02.890Z,90.03
2023-02-15T06:48:30.075Z,89.89
2023-02-15T06:50:56.967Z,89.91
2023-02-15T06:53:23.932Z,90.23
2023-02-15T06:55:50.817Z,89.77
2023-02-15T06:58:17.835Z,89.19
2023-02-15T07:00:44.668Z,88.77
2023-02-15T07:03:14.568Z,89.53
2023-02-15T07:05:41.521Z,89.12
2023-02-15T07:08:08.476Z,88.62
2023-02-15T07:10:35.522Z,88.60
2023-02-15T07:13:03.031Z,89.04
2023-02-15T07:15:29.987Z,89.19
2023-02-15T07:17:58.577Z,88.85
2023-02-15T07:20:25.511Z,88.69
2023-02-15T07:22:52.489Z,88.31
2023-02-15T07:25:19.733Z,88.24
2023-02-15T07:27:48.863Z,87.95
2023-02-15T07:30:16.982Z,87.79
2023-02-15T07:32:47.216Z,87.57
2023-02-15T07:35:14.317Z,87.56
2023-02-15T07:37:41.294Z,87.40
2023-02-15T07:40:08.632Z,87.52
2023-02-15T07:42:39.196Z,87.39
2023-02-15T07:45:06.323Z,87.41
2023-02-15T07:47:33.248Z,88.03
2023-02-15T07:50:00.241Z,88.29
2023-02-15T07:52:27.216Z,87.85
2023-02-15T07:54:54.247Z,87.59
2023-02-15T07:57:21.450Z,88.06
2023-02-15T07:59:48.409Z,89.08
2023-02-15T08:02:17.548Z,88.87
2023-02-15T08:04:45.382Z,88.71
2023-02-15T08:07:12.310Z,88.33
2023-02-15T08:09:39.272Z,87.72
2023-02-15T08:12:07.687Z,87.07
2023-02-15T08:14:34.933Z,86.75
2023-02-15T08:17:06.201Z,86.81
2023-02-15T08:19:34.002Z,86.68
2023-02-15T08:22:02.451Z,86.95
2023-02-15T08:24:31.193Z,86.48
2023-02-15T08:26:59.642Z,85.92
2023-02-15T08:29:28.635Z,85.72
2023-02-15T08:32:00.070Z,85.72
2023-02-15T08:34:27.728Z,85.73
2023-02-15T08:36:54.844Z,85.76
2023-02-15T08:39:22.728Z,85.46
2023-02-15T08:41:49.945Z,85.18
2023-02-15T08:44:18.286Z,84.67
2023-02-15T08:46:46.297Z,84.47
2023-02-15T08:49:14.633Z,84.28
2023-02-15T08:51:41.848Z,83.33
2023-02-15T08:54:11.021Z,82.69
2023-02-15T08:56:38.912Z,82.66
2023-02-15T08:59:06.687Z,82.47
2023-02-15T09:01:34.978Z,82.40
2023-02-15T09:04:03.392Z,82.42
2023-02-15T09:06:30.771Z,82.75
2023-02-15T09:08:58.057Z,81.82
2023-02-15T09:11:26.847Z,81.52
2023-02-15T09:13:55.176Z,81.56
2023-02-15T09:16:22.923Z,81.18
2023-02-15T09:18:50.697Z,80.81
2023-02-15T09:21:20.403Z,80.87
2023-02-15T09:23:48.822Z,81.02
2023-02-15T09:26:17.819Z,80.15
2023-02-15T09:28:45.230Z,80.47
2023-02-15T09:31:13.568Z,80.71
2023-02-15T09:33:41.834Z,81.02
2023-02-15T09:36:11.918Z,80.64
2023-02-15T09:38:38.983Z,80.13
2023-02-15T09:41:09.226Z,79.79
2023-02-15T09:43:43.294Z,79.91
2023-02-15T09:46:17.738Z,79.72
2023-02-15T09:48:47.487Z,79.92
2023-02-15T09:51:17.644Z,79.38
2023-02-15T09:53:47.805Z,78.40
2023-02-15T09:56:21.110Z,78.30
2023-02-15T09:58:48.747Z,78.09
2023-02-15T10:01:20.975Z,78.15
2023-02-15T10:03:51.262Z,77.75
2023-02-15T10:06:22.214Z,77.28
2023-02-15T10:08:49.815Z,77.44
2023-02-15T10:11:21.333Z,77.93
2023-02-15T10:13:51.952Z,77.19
2023-02-15T10:16:24.143Z,76.92
2023-02-15T10:18:54.470Z,77.51
2023-02-15T10:21:30.698Z,77.46
2023-02-15T10:23:59.422Z,77.60
2023-02-15T10:26:35.485Z,77.13
2023-02-15T10:29:05.649Z,77.34
2023-02-15T10:31:36.141Z,76.64
2023-02-15T10:34:13.571Z,76.30
2023-02-15T10:36:43.845Z,76.22
2023-02-15T10:39:12.377Z,76.21
2023-02-15T10:41:42.768Z,76.72
2023-02-15T10:44:13.033Z,76.13
2023-02-15T10:46:41.665Z,76.13
2023-02-15T10:49:11.821Z,75.61
2023-02-15T10:51:45.971Z,75.37
2023-02-15T10:54:21.276Z,75.33
2023-02-15T10:56:49.785Z,75.09
2023-02-15T10:59:17.730Z,75.00
2023-02-15T11:01:46.170Z,75.54
2023-02-15T11:04:17.462Z,75.95
2023-02-15T11:06:49.737Z,75.54
2023-02-15T11:09:19.470Z,75.09
2023-02-15T11:11:49.547Z,75.83
2023-02-15T11:14:21.630Z,75.56
2023-02-15T11:16:52.290Z,75.68
2023-02-15T11:19:23.190Z,75.00
2023-02-15T11:21:52.049Z,75.07
2023-02-15T11:24:21.390Z,73.92
2023-02-15T11:26:51.883Z,73.88
2023-02-15T11:29:24.619Z,73.14
2023-02-15T11:31:55.885Z,72.86
2023-02-15T11:34:24.473Z,72.46
2023-02-15T11:36:53.696Z,72.00
2023-02-15T11:39:22.453Z,71.73
2023-02-15T11:41:53.482Z,71.59
2023-02-15T11:44:24.460Z,72.25
2023-02-15T11:46:51.787Z,71.88
2023-02-15T11:49:22.144Z,71.75
2023-02-15T11:51:51.979Z,70.92
2023-02-15T11:54:23.313Z,71.03
2023-02-15T11:56:50.733Z,70.81
2023-02-15T11:59:24.607Z,70.77
2023-02-15T12:01:52.738Z,70.94
2023-02-15T12:04:23.081Z,70.32
2023-02-15T12:06:53.535Z,70.05
2023-02-15T12:09:26.376Z,69.15
2023-02-15T12:11:53.687Z,69.58
2023-02-15T12:14:21.661Z,69.44
2023-02-15T12:16:49.163Z,69.38
2023-02-15T12:19:19.559Z,70.20
2023-02-15T12:21:52.687Z,69.77
2023-02-15T12:24:22.288Z,70.09
2023-02-15T12:26:52.604Z,70.32
2023-02-15T12:29:29.128Z,70.05
2023-02-15T12:31:56.486Z,69.33
2023-02-15T12:34:27.264Z,68.67
2023-02-15T12:36:59.272Z,68.56
2023-02-15T12:39:29.093Z,68.45
2023-02-15T12:41:58.887Z,67.92
2023-02-15T12:44:30.212Z,67.49
2023-02-15T12:46:59.624Z,67.77
2023-02-15T12:49:27.808Z,67.15
2023-02-15T12:51:57.415Z,66.63
2023-02-15T12:54:28.042Z,66.08
2023-02-15T12:56:55.803Z,66.36
2023-02-15T12:59:23.984Z,66.15
2023-02-15T13:01:52.952Z,65.65
2023-02-15T13:04:23.408Z,65.23
2023-02-15T13:06:53.215Z,64.58
2023-02-15T13:09:22.454Z,63.71
2023-02-15T13:11:51.343Z,63.49
2023-02-15T13:14:23.400Z,63.17
2023-02-15T13:16:53.660Z,63.46
2023-02-15T13:19:21.341Z,61.91
2023-02-15T13:21:50.134Z,61.99
2023-02-15T13:24:20.955Z,62.12
2023-02-15T13:26:49.406Z,62.00
2023-02-15T13:29:19.787Z,61.56
2023-02-15T13:31:47.632Z,61.57
2023-02-15T13:34:21.274Z,61.15
2023-02-15T13:36:52.057Z,61.20
2023-02-15T13:39:24.536Z,60.97
2023-02-15T13:41:53.786Z,61.36
2023-02-15T13:44:24.140Z,61.82
2023-02-15T13:46:54.424Z,62.08
2023-02-15T13:49:22.797Z,60.67
2023-02-15T13:51:53.095Z,60.10
2023-02-15T13:54:21.638Z,60.05
2023-02-15T13:56:52.072Z,60.55
2023-02-15T13:59:22.382Z,60.16
2023-02-15T14:01:53.025Z,59.68
2023-02-15T14:04:23.652Z,59.41
2023-02-15T14:07:00.365Z,59.24
2023-02-15T14:09:28.392Z,58.71
2023-02-15T14:11:58.925Z,58.56
2023-02-15T14:14:29.367Z,58.96
2023-02-15T14:17:06.685Z,59.65
2023-02-15T14:19:38.383Z,59.92
2023-02-15T14:22:10.657Z,59.28
2023-02-15T14:24:44.698Z,59.72
2023-02-15T14:27:15.182Z,59.40
2023-02-15T14:29:43.166Z,58.75
2023-02-15T14:32:13.571Z,59.41
2023-02-15T14:34:44.057Z,59.18
2023-02-15T14:37:13.741Z,58.69
2023-02-15T14:39:44.700Z,59.33
2023-02-15T14:42:15.018Z,58.70
2023-02-15T14:44:45.203Z,59.17
2023-02-15T14:47:19.648Z,59.66
2023-02-15T14:49:47.024Z,58.81
2023-02-15T14:52:14.496Z,58.86
2023-02-15T14:54:42.152Z,58.64
2023-02-15T14:57:10.002Z,58.25
2023-02-15T14:59:40.217Z,58.55
2023-02-15T15:02:07.904Z,58.08
2023-02-15T15:04:36.381Z,58.17
2023-02-15T15:07:09.578Z,58.17
2023-02-15T15:09:39.663Z,58.50
2023-02-15T15:12:10.073Z,58.65
2023-02-15T15:14:38.591Z,58.47
2023-02-15T15:17:06.607Z,58.55
2023-02-15T15:19:50.904Z,59.05
2023-02-15T15:22:22.154Z,59.04
2023-02-15T15:24:49.705Z,59.02
2023-02-15T15:27:20.149Z,58.35
2023-02-15T15:29:47.590Z,57.70
2023-02-15T15:32:20.628Z,58.08
2023-02-15T15:34:50.959Z,58.60
2023-02-15T15:37:21.429Z,59.17
2023-02-15T15:39:51.929Z,59.08
2023-02-15T15:42:22.143Z,58.29
2023-02-15T15:44:50.800Z,59.01
2023-02-15T15:47:26.357Z,59.00
2023-02-15T15:49:57.124Z,59.02
2023-02-15T15:52:25.976Z,58.33
2023-02-15T15:54:56.616Z,58.92
2023-02-15T15:57:29.219Z,58.85
2023-02-15T16:00:00.049Z,59.24
2023-02-15T16:02:27.954Z,58.98
2023-02-15T16:04:55.485Z,58.87
2023-02-15T16:07:25.875Z,59.08
2023-02-15T16:09:56.329Z,59.80
2023-02-15T16:12:24.884Z,59.47
2023-02-15T16:14:54.371Z,59.33
2023-02-15T16:17:24.039Z,59.23
2023-02-15T16:19:52.610Z,59.55
2023-02-15T16:22:23.268Z,59.20
2023-02-15T16:24:50.988Z,59.28
2023-02-15T16:27:19.459Z,59.55
2023-02-15T16:29:46.733Z,60.99
2023-02-15T16:32:17.070Z,60.88
2023-02-15T16:34:47.480Z,61.03
2023-02-15T16:37:15.881Z,60.59
2023-02-15T16:39:44.477Z,60.47
2023-02-15T16:42:12.773Z,60.76
2023-02-15T16:44:41.778Z,61.89
2023-02-15T16:47:16.123Z,61.23
2023-02-15T16:49:46.396Z,61.06
2023-02-15T16:52:17.212Z,60.61
2023-02-15T16:54:44.571Z,60.98
2023-02-15T16:57:14.964Z,61.69
2023-02-15T16:59:44.943Z,61.78
2023-02-15T17:02:40.302Z,61.17
2023-02-15T17:05:09.078Z,61.68
2023-02-15T17:07:39.960Z,62.87
2023-02-15T17:10:26.890Z,61.61
2023-02-15T17:13:00.945Z,62.20
2023-02-15T17:15:31.296Z,62.24
2023-02-15T17:18:01.414Z,63.35
2023-02-15T17:20:28.896Z,62.84
2023-02-15T17:22:56.416Z,63.26
2023-02-15T17:25:26.818Z,63.81
2023-02-15T17:27:56.599Z,63.74
2023-02-15T17:30:28.915Z,63.83
2023-02-15T17:33:33.796Z,64.26
2023-02-15T17:36:04.235Z,64.57
2023-02-15T17:38:31.783Z,64.13
2023-02-15T17:40:59.658Z,64.84
2023-02-15T17:43:31.456Z,65.15
2023-02-15T17:46:01.442Z,64.67
2023-02-15T17:48:32.155Z,64.12
2023-02-15T17:51:02.133Z,65.02
2023-02-15T17:53:29.736Z,65.08
2023-02-15T17:55:57.140Z,64.71
2023-02-15T17:58:24.695Z,63.86
2023-02-15T18:00:56.860Z,64.58
2023-02-15T18:03:28.716Z,64.77
2023-02-15T18:05:59.268Z,64.49
2023-02-15T18:08:31.184Z,63.54
2023-02-15T18:11:02.087Z,63.95
2023-02-15T18:13:29.697Z,65.14
2023-02-15T18:15:57.219Z,64.84
2023-02-15T18:18:24.846Z,63.92
2023-02-15T18:20:52.480Z,64.41
2023-02-15T18:23:19.896Z,63.96
2023-02-15T18:25:47.755Z,63.93
2023-02-15T18:28:15.280Z,64.33
2023-02-15T18:30:44.416Z,64.84
2023-02-15T18:33:15.189Z,65.74
2023-02-15T18:35:42.378Z,66.58
2023-02-15T18:38:10.710Z,66.68
2023-02-15T18:40:38.099Z,67.35
2023-02-15T18:43:05.530Z,67.02
2023-02-15T18:45:33.817Z,67.53
2023-02-15T18:48:01.474Z,67.59
2023-02-15T18:50:32.006Z,68.14
2023-02-15T18:52:59.254Z,68.48
2023-02-15T18:55:28.543Z,69.23
2023-02-15T18:57:57.430Z,69.78
2023-02-15T19:00:27.350Z,70.72
2023-02-15T19:02:55.244Z,70.91
2023-02-15T19:05:23.844Z,70.96
2023-02-15T19:07:52.813Z,71.19
2023-02-15T19:10:22.712Z,71.50
2023-02-15T19:12:51.944Z,71.80
2023-02-15T19:15:23.028Z,72.30
2023-02-15T19:17:53.084Z,72.84
2023-02-15T19:20:23.478Z,72.52
2023-02-15T19:22:58.305Z,72.63
2023-02-15T19:25:29.404Z,73.77
2023-02-15T19:27:57.258Z,73.84
2023-02-15T19:30:29.871Z,74.73
2023-02-15T19:32:59.490Z,74.48
2023-02-15T19:35:31.007Z,74.74
2023-02-15T19:38:00.275Z,75.07
2023-02-15T19:40:30.613Z,75.66
2023-02-15T19:42:58.774Z,75.70
2023-02-15T19:45:27.425Z,76.10
2023-02-15T19:47:56.329Z,76.43
2023-02-15T19:50:26.777Z,76.01
2023-02-15T19:52:54.724Z,76.59
2023-02-15T19:55:25.000Z,77.02
2023-02-15T19:57:54.054Z,77.22
2023-02-15T20:00:23.601Z,77.73
2023-02-15T20:02:52.154Z,78.10
2023-02-15T20:05:21.694Z,78.68
2023-02-15T20:07:52.029Z,79.13
2023-02-15T20:10:21.990Z,79.68
2023-02-15T20:12:52.839Z,79.79
2023-02-15T20:15:24.001Z,80.08
2023-02-15T20:17:53.733Z,79.16
2023-02-15T20:20:22.619Z,80.28
2023-02-15T20:22:53.112Z,80.64
2023-02-15T20:25:24.450Z,81.20
2023-02-15T20:27:53.080Z,81.57
2023-02-15T20:30:23.043Z,82.31
2023-02-15T20:32:52.239Z,81.96
2023-02-15T20:35:21.829Z,82.01
2023-02-15T20:37:53.010Z,82.35
2023-02-15T20:40:25.338Z,82.82
2023-02-15T20:42:54.901Z,82.74
2023-02-15T20:45:24.428Z,83.28
2023-02-15T20:47:54.587Z,84.43
2023-02-15T20:50:29.609Z,84.48
2023-02-15T20:52:59.997Z,84.14
2023-02-15T20:55:30.946Z,84.22
2023-02-15T20:58:00.853Z,84.41
2023-02-15T21:00:30.641Z,84.81
2023-02-15T21:03:01.076Z,84.66
2023-02-15T21:05:32.699Z,84.88
2023-02-15T21:08:02.420Z,85.14
2023-02-15T21:10:33.551Z,86.08
2023-02-15T21:13:02.856Z,86.56
2023-02-15T21:15:34.962Z,86.30
2023-02-15T21:18:04.918Z,86.38
2023-02-15T21:20:34.647Z,86.55
2023-02-15T21:23:05.101Z,86.76
2023-02-15T21:25:36.705Z,87.67
2023-02-15T21:28:06.436Z,87.50
2023-02-15T21:30:34.481Z,87.74
2023-02-15T21:33:02.326Z,87.87
2023-02-15T21:35:30.484Z,87.42
2023-02-15T21:37:58.833Z,87.59
2023-02-15T21:40:29.982Z,88.24
2023-02-15T21:43:02.637Z,88.15
2023-02-15T21:45:35.145Z,89.14
2023-02-15T21:48:06.266Z,89.17
2023-02-15T21:50:39.130Z,89.03
2023-02-15T21:53:08.365Z,89.28
2023-02-15T21:55:36.647Z,88.86
2023-02-15T21:58:04.509Z,89.38
2023-02-15T22:00:34.006Z,89.63
2023-02-15T22:03:02.664Z,89.79
2023-02-15T22:05:32.329Z,90.17
2023-02-15T22:08:00.487Z,90.23
2023-02-15T22:10:30.629Z,91.04
2023-02-15T22:13:00.472Z,90.74
2023-02-15T22:15:37.015Z,90.74
2023-02-15T22:18:04.923Z,91.08
2023-02-15T22:20:32.737Z,91.08
2023-02-15T22:23:00.372Z,91.18
2023-02-15T22:25:28.119Z,91.13
2023-02-15T22:27:55.673Z,91.60
2023-02-15T22:30:24.272Z,91.42
2023-02-15T22:32:51.574Z,91.73
2023-02-15T22:35:21.363Z,91.37
2023-02-15T22:37:48.862Z,91.21
2023-02-15T22:40:17.338Z,91.39
2023-02-15T22:42:47.399Z,91.91
2023-02-15T22:45:17.822Z,92.19
2023-02-15T22:47:45.747Z,92.22
2023-02-15T22:50:20.042Z,92.27
2023-02-15T22:52:47.300Z,93.01
2023-02-15T22:55:16.367Z,93.30
2023-02-15T22:57:43.781Z,93.34
2023-02-15T23:00:16.107Z,93.66
2023-02-15T23:02:43.217Z,93.74
2023-02-15T23:05:16.966Z,94.05
2023-02-15T23:07:43.985Z,94.04
2023-02-15T23:10:21.383Z,93.80
2023-02-15T23:12:53.071Z,94.01
2023-02-15T23:15:20.194Z,94.30
2023-02-15T23:17:47.226Z,94.15
2023-02-15T23:20:15.503Z,93.57
2023-02-15T23:22:43.768Z,93.51
2023-02-15T23:25:11.736Z,93.51
2023-02-15T23:27:41.991Z,93.38
2023-02-15T23:30:13.541Z,92.77
2023-02-15T23:32:40.935Z,92.66
2023-02-15T23:35:11.109Z,92.17
2023-02-15T23:37:37.997Z,91.10
2023-02-15T23:40:08.420Z,91.04
2023-02-15T23:42:35.958Z,90.57
2023-02-15T23:45:03.378Z,90.72
2023-02-15T23:47:35.846Z,91.06
2023-02-15T23:50:02.813Z,90.43
2023-02-15T23:52:29.727Z,90.39
2023-02-15T23:54:56.612Z,89.86
2023-02-15T23:57:23.600Z,89.89
2023-02-15T23:59:50.640Z,90.12
